Time;durP1;ratioP1;P1;durP2;ratioP2;P2;SDS_P1;SDS_P2;PMS_P1;PMS_P2;Temp;Humidity;BMP_temperature;BMP_pressure;BME280_temperature;BME280_humidity;BME280_pressure;Samples;Min_cycle;Max_cycle;Signal;HPM_P1;HPM_P2
2022/10/05 00:01:43;;;;;;;7.03;6.32;;;;;;;14.71;85.08;101771.91;4956389;28;20134;-77
2022/10/05 00:04:19;;;;;;;7.05;6.30;;;;;;;14.70;85.32;101767.72;4955852;28;20043;-77
2022/10/05 00:07:01;;;;;;;7.47;6.07;;;;;;;14.70;84.82;101770.41;4956578;28;20178;-77
2022/10/05 00:09:30;;;;;;;10.32;5.88;;;;;;;14.72;85.30;101772.66;4956799;28;20138;-77
2022/10/05 00:11:57;;;;;;;9.38;6.03;;;;;;;14.71;84.90;101773.84;4955874;28;20123;-77
2022/10/05 00:14:30;;;;;;;6.68;5.95;;;;;;;14.70;85.13;101769.66;4956073;28;20047;-77
2022/10/05 00:16:57;;;;;;;9.30;6.03;;;;;;;14.70;84.92;101767.72;4955892;28;20036;-77
2022/10/05 00:19:32;;;;;;;8.90;6.35;;;;;;;14.70;84.82;101775.78;4956026;28;20116;-77
2022/10/05 00:22:12;;;;;;;7.63;6.28;;;;;;;14.70;84.91;101770.41;4955892;28;20048;-77
2022/10/05 00:24:39;;;;;;;6.00;5.40;;;;;;;14.70;84.89;101759.69;4956431;28;20051;-77
2022/10/05 00:27:20;;;;;;;6.68;5.32;;;;;;;14.69;85.06;101760.88;4955489;28;20071;-77
2022/10/05 00:29:49;;;;;;;7.72;5.45;;;;;;;14.67;84.83;101760.56;4954371;28;20076;-77
2022/10/05 00:32:16;;;;;;;7.65;5.53;;;;;;;14.67;85.21;101755.22;4954210;28;20147;-77
2022/10/05 00:34:43;;;;;;;7.13;5.45;;;;;;;14.66;85.13;101753.72;4955979;28;20509;-77
2022/10/05 00:37:12;;;;;;;8.82;5.47;;;;;;;14.65;85.10;101744.19;4953429;28;20075;-77
2022/10/05 00:39:40;;;;;;;5.97;5.45;;;;;;;14.65;85.02;101752.97;4956213;28;20083;-77
2022/10/05 00:42:36;;;;;;;5.90;5.20;;;;;;;14.64;85.26;101754.16;4955263;28;20154;-77
2022/10/05 00:45:10;;;;;;;7.50;5.97;;;;;;;14.66;85.10;101748.38;4953405;28;20115;-77
2022/10/05 00:47:46;;;;;;;6.57;5.82;;;;;;;14.67;84.86;101739.13;4956142;28;20047;-77
2022/10/05 00:50:18;;;;;;;6.07;5.38;;;;;;;14.66;85.33;101743.00;4954203;28;20134;-77
2022/10/05 00:53:14;;;;;;;6.72;5.70;;;;;;;14.64;85.69;101737.34;4955928;28;20051;-77
2022/10/05 00:55:49;;;;;;;5.88;5.38;;;;;;;14.63;85.76;101739.28;4946246;28;20091;-76
2022/10/05 00:58:28;;;;;;;6.82;5.90;;;;;;;14.62;85.56;101745.81;4955004;28;20520;-77
2022/10/05 01:01:10;;;;;;;6.88;5.70;;;;;;;14.63;85.47;101736.59;4953663;28;20130;-77
2022/10/05 01:03:56;;;;;;;5.90;5.35;;;;;;;14.65;85.27;101730.78;4953977;28;20428;-77
2022/10/05 01:06:59;;;;;;;6.45;5.25;;;;;;;14.63;85.61;101725.13;4954922;28;20055;-77
2022/10/05 01:09:40;;;;;;;5.88;5.28;;;;;;;14.60;85.77;101726.75;4955025;28;20139;-77
2022/10/05 01:12:23;;;;;;;6.63;6.03;;;;;;;14.58;85.72;101718.41;4953711;28;20584;-77
2022/10/05 01:15:01;;;;;;;6.57;5.85;;;;;;;14.56;85.95;101720.78;4954855;28;20111;-77
2022/10/05 01:17:39;;;;;;;6.53;5.88;;;;;;;14.53;85.98;101726.28;4955537;28;20111;-77
2022/10/05 01:20:16;;;;;;;7.18;6.47;;;;;;;14.51;86.30;101726.72;4955082;28;20114;-77
2022/10/05 01:23:14;;;;;;;10.55;6.15;;;;;;;14.50;86.53;101719.88;4954055;28;20071;-76
2022/10/05 01:26:18;;;;;;;15.43;6.97;;;;;;;14.51;86.56;101713.34;4953970;28;20127;-77
2022/10/05 01:28:58;;;;;;;10.73;6.55;;;;;;;14.50;86.77;101709.16;4954942;28;20048;-77
2022/10/05 01:32:07;;;;;;;8.20;6.50;;;;;;;14.49;86.49;101694.28;4955399;28;20048;-77
2022/10/05 01:34:41;;;;;;;12.13;6.65;;;;;;;14.48;86.61;101686.69;4955081;28;20902;-77
2022/10/05 01:37:28;;;;;;;10.50;6.85;;;;;;;14.44;86.73;101686.81;4952429;28;20048;-77
2022/10/05 01:40:03;;;;;;;9.00;7.15;;;;;;;14.43;86.98;101674.63;4954881;28;20536;-77
2022/10/05 01:42:48;;;;;;;6.88;6.25;;;;;;;14.41;87.00;101676.22;4953084;28;20051;-77
2022/10/05 01:45:31;;;;;;;7.93;7.03;;;;;;;14.38;87.11;101669.09;4953190;28;20883;-77
2022/10/05 01:48:08;;;;;;;8.05;7.25;;;;;;;14.36;86.94;101677.56;4953227;28;20051;-76
2022/10/05 01:50:55;;;;;;;10.05;7.15;;;;;;;14.35;86.93;101676.81;4955145;28;20499;-77
2022/10/05 01:53:42;;;;;;;12.48;7.22;;;;;;;14.34;87.33;101669.22;4953447;28;20098;-77
2022/10/05 01:56:27;;;;;;;9.20;7.20;;;;;;;14.32;87.38;101669.66;4952331;28;20055;-77
2022/10/05 01:59:00;;;;;;;9.70;7.28;;;;;;;14.31;87.60;101659.41;4953089;28;20056;-77
2022/10/05 02:01:37;;;;;;;9.73;7.15;;;;;;;14.28;87.67;101650.31;4953010;28;20131;-77
2022/10/05 02:04:14;;;;;;;9.55;7.10;;;;;;;14.26;87.83;101644.66;4952935;28;20138;-77
2022/10/05 02:07:09;;;;;;;9.50;6.90;;;;;;;14.23;87.83;101634.09;4952810;28;20043;-79
2022/10/05 02:09:43;;;;;;;12.25;7.45;;;;;;;14.21;88.26;101637.19;4953278;28;20151;-78
2022/10/05 02:12:16;;;;;;;8.02;7.15;;;;;;;14.20;88.39;101629.59;4953477;28;20055;-78
2022/10/05 02:14:48;;;;;;;7.85;7.05;;;;;;;14.18;88.21;101626.63;4953164;28;20568;-78
2022/10/05 02:17:32;;;;;;;;;;;;;;;14.19;87.80;101630.78;4954846;28;20055;-78
2022/10/05 02:20:02;;;;;;;10.93;6.90;;;;;;;14.16;88.45;101635.09;4953319;28;20407;-78
2022/10/05 02:22:43;;;;;;;9.15;7.03;;;;;;;14.16;88.57;101637.03;4953120;28;20048;-78
2022/10/05 02:25:18;;;;;;;9.75;7.20;;;;;;;14.14;88.70;101642.81;4952007;28;20060;-78
2022/10/05 02:28:01;;;;;;;10.27;7.72;;;;;;;14.13;88.82;101633.31;4952836;28;20088;-78
2022/10/05 02:30:31;;;;;;;9.30;7.63;;;;;;;14.11;89.00;101619.63;4952907;28;20051;-78
2022/10/05 02:33:08;;;;;;;14.55;8.02;;;;;;;14.09;88.94;101623.91;4952475;28;20051;-79
2022/10/05 02:35:34;;;;;;;9.20;7.90;;;;;;;14.08;89.27;101609.03;4954306;28;20047;-78
2022/10/05 02:38:16;;;;;;;11.82;7.68;;;;;;;14.05;89.29;101604.56;4953175;28;20127;-79
2022/10/05 02:40:51;;;;;;;14.38;7.65;;;;;;;14.04;89.41;101622.56;4952385;28;20131;-78
2022/10/05 02:43:30;;;;;;;15.52;8.00;;;;;;;14.03;89.76;101629.84;4952460;28;20056;-79
2022/10/05 02:46:13;;;;;;;10.32;7.50;;;;;;;14.02;89.68;101623.00;4952497;28;20099;-78
2022/10/05 02:48:43;;;;;;;9.77;7.30;;;;;;;14.02;89.65;101617.66;4952666;28;20059;-78
2022/10/05 02:51:23;;;;;;;8.63;7.07;;;;;;;14.03;89.60;101610.34;4953570;28;20048;-78
2022/10/05 02:54:08;;;;;;;10.15;7.35;;;;;;;14.01;89.81;101596.69;4952441;28;20493;-76
2022/10/05 02:56:53;;;;;;;11.27;7.35;;;;;;;14.00;89.44;101587.16;4952518;28;20048;-76
2022/10/05 02:59:32;;;;;;;12.23;7.50;;;;;;;14.00;89.55;101597.84;4952136;28;20052;-78
2022/10/05 03:02:21;;;;;;;12.15;7.57;;;;;;;13.97;89.43;101612.16;4951883;28;20146;-78
2022/10/05 03:05:03;;;;;;;7.78;6.95;;;;;;;13.97;89.86;101609.47;4953943;28;20135;-76
2022/10/05 03:07:38;;;;;;;12.40;7.07;;;;;;;13.96;89.98;101605.31;4952462;28;20048;-76
2022/10/05 03:10:08;;;;;;;9.77;7.38;;;;;;;13.95;89.87;101599.22;4951380;28;20496;-78
2022/10/05 03:12:37;;;;;;;14.43;7.25;;;;;;;13.96;89.61;101597.28;4952616;28;20527;-78
2022/10/05 03:15:38;;;;;;;9.02;6.82;;;;;;;13.96;89.56;101602.63;4955011;28;20055;-78
2022/10/05 03:18:27;;;;;;;9.63;7.90;;;;;;;13.96;89.68;101606.06;4956795;28;20054;-78
2022/10/05 03:21:32;;;;;;;10.48;7.72;;;;;;;13.98;89.34;101602.94;4955462;28;20044;-79
2022/10/05 03:24:20;;;;;;;10.77;7.72;;;;;;;13.99;89.29;101607.09;4899521;29;20052;-78
2022/10/05 03:26:53;;;;;;;7.60;6.53;;;;;;;13.99;89.55;101602.47;4900317;29;20105;-78
2022/10/05 03:29:32;;;;;;;12.65;7.70;;;;;;;14.00;89.32;101603.22;4916044;29;20332;-76
2022/10/05 03:32:13;;;;;;;7.68;6.95;;;;;;;14.00;89.45;101606.63;4915998;29;20056;-76
2022/10/05 03:34:46;;;;;;;11.57;6.47;;;;;;;14.01;89.17;101604.69;4900210;29;20057;-76
2022/10/05 03:37:26;;;;;;;11.88;7.13;;;;;;;14.01;89.27;101605.44;4915721;29;20061;-76
2022/10/05 03:40:01;;;;;;;7.57;6.75;;;;;;;14.01;89.02;101608.13;4899502;29;20692;-76
2022/10/05 03:42:46;;;;;;;8.85;6.43;;;;;;;14.03;88.84;101615.72;4900485;29;20059;-76
2022/10/05 03:45:33;;;;;;;10.65;6.70;;;;;;;14.06;88.26;101603.38;4899722;29;20585;-76
2022/10/05 03:48:07;;;;;;;9.55;6.35;;;;;;;14.07;88.03;101600.25;4899736;29;20052;-76
2022/10/05 03:50:40;;;;;;;9.57;6.20;;;;;;;14.08;87.78;101603.69;4900005;29;20053;-76
2022/10/05 03:53:19;;;;;;;7.72;6.60;;;;;;;14.08;87.86;101607.09;4914904;29;20131;-76
2022/10/05 03:56:03;;;;;;;7.18;6.00;;;;;;;14.09;87.68;101605.19;4916246;29;20049;-76
2022/10/05 03:58:49;;;;;;;9.63;6.75;;;;;;;14.08;87.42;101601.75;4900880;29;20049;-76
2022/10/05 04:01:24;;;;;;;7.50;6.47;;;;;;;14.10;87.32;101604.72;4935793;29;20051;-76
2022/10/05 04:04:01;;;;;;;8.75;6.40;;;;;;;14.10;87.42;101594.03;4935572;28;20497;-76
2022/10/05 04:06:40;;;;;;;7.85;6.13;;;;;;;14.10;87.00;101594.03;4936022;28;20055;-76
2022/10/05 04:09:19;;;;;;;11.07;6.35;;;;;;;14.11;86.91;101592.84;4935270;28;20097;-76
2022/10/05 04:12:11;;;;;;;9.35;6.18;;;;;;;14.11;86.88;101579.44;4935753;29;20379;-76
2022/10/05 04:14:43;;;;;;;9.20;5.68;;;;;;;14.09;86.29;101584.50;4937247;28;20075;-76
2022/10/05 04:17:30;;;;;;;8.20;5.40;;;;;;;14.08;86.91;101574.97;4935129;29;20060;-76
2022/10/05 04:20:26;;;;;;;8.95;6.72;;;;;;;14.09;86.60;101575.72;4935319;28;21329;-76
2022/10/05 04:23:15;;;;;;;6.15;5.55;;;;;;;14.07;86.61;101570.06;4925145;29;20497;-76
2022/10/05 04:25:49;;;;;;;7.75;6.10;;;;;;;14.06;86.48;101574.69;4935589;29;20060;-76
2022/10/05 04:28:24;;;;;;;6.47;5.60;;;;;;;14.06;86.63;101582.72;4935197;29;20052;-78
2022/10/05 04:30:59;;;;;;;6.05;5.35;;;;;;;14.07;86.30;101573.50;4935253;28;20131;-78
2022/10/05 04:33:26;;;;;;;6.97;5.63;;;;;;;14.07;85.93;101572.75;4935350;29;20147;-78
2022/10/05 04:36:30;;;;;;;6.25;5.65;;;;;;;14.07;86.11;101567.38;4934736;28;20103;-76
2022/10/05 04:39:28;;;;;;;7.13;5.90;;;;;;;14.07;85.80;101556.69;4949241;28;20441;-76
2022/10/05 04:42:31;;;;;;;8.30;5.63;;;;;;;14.09;85.79;101560.41;4954275;28;20059;-76
2022/10/05 04:45:31;;;;;;;7.43;5.78;;;;;;;14.06;85.59;101552.50;4955814;28;20075;-76
2022/10/05 04:48:03;;;;;;;5.82;5.32;;;;;;;14.06;85.81;101547.16;4955512;28;20043;-76
2022/10/05 04:50:33;;;;;;;6.70;5.93;;;;;;;14.05;85.25;101551.78;4955531;28;20505;-76
2022/10/05 04:53:35;;;;;;;6.80;6.07;;;;;;;14.06;85.49;101555.19;4953537;28;20443;-76
2022/10/05 04:56:14;;;;;;;8.30;6.13;;;;;;;14.06;85.20;101550.59;4953965;28;20086;-76
2022/10/05 04:58:45;;;;;;;6.38;5.88;;;;;;;14.06;85.19;101545.22;4955688;28;20044;-76
2022/10/05 05:01:22;;;;;;;6.05;5.55;;;;;;;14.05;85.27;101548.34;4937702;28;20068;-76
2022/10/05 05:04:13;;;;;;;8.07;5.68;;;;;;;14.07;84.76;101546.72;4954099;28;20052;-76
2022/10/05 05:07:17;;;;;;;6.72;5.32;;;;;;;14.08;84.60;101544.78;4953556;28;20519;-76
2022/10/05 05:10:22;;;;;;;7.28;5.15;;;;;;;14.08;84.58;101544.78;4954025;28;20047;-78
2022/10/05 05:13:14;;;;;;;5.65;4.40;;;;;;;14.08;84.18;101542.84;4953847;28;20055;-79
2022/10/05 05:15:49;;;;;;;;;;;;;;;14.09;84.36;101540.91;4954348;28;20043;-76
2022/10/05 05:18:47;;;;;;;5.65;4.03;;;;;;;14.07;83.90;101527.97;4955088;28;19935;-78
2022/10/05 05:21:38;;;;;;;4.63;3.92;;;;;;;14.06;83.96;101536.44;4953108;28;20048;-76
2022/10/05 05:24:19;;;;;;;5.32;3.97;;;;;;;14.04;83.92;101526.19;4953364;28;20087;-76
2022/10/05 05:27:00;;;;;;;4.15;3.72;;;;;;;14.04;84.08;101534.22;4953804;28;20135;-76
2022/10/05 05:29:42;;;;;;;4.80;3.58;;;;;;;14.02;83.95;101529.31;4953972;28;20473;-78
2022/10/05 05:32:17;;;;;;;;;;;;;;;14.05;84.00;101535.72;4954931;28;20075;-78
2022/10/05 05:35:35;;;;;;;3.35;3.15;;;;;;;14.03;84.04;101528.13;4969211;28;19937;-76
2022/10/05 05:38:19;;;;;;;3.75;3.45;;;;;;;14.02;84.16;101529.31;4894352;29;20536;-76
2022/10/05 05:41:06;;;;;;;3.60;3.38;;;;;;;14.00;84.43;101526.31;4879641;29;20081;-77
2022/10/05 05:44:03;;;;;;;6.93;3.50;;;;;;;13.99;84.54;101530.19;4879583;29;20057;-78
2022/10/05 05:46:39;;;;;;;4.05;3.75;;;;;;;14.00;84.44;101531.69;4879774;29;20125;-78
2022/10/05 05:49:59;;;;;;;4.55;3.70;;;;;;;14.00;84.92;101530.94;4879287;29;20067;-78
2022/10/05 05:52:35;;;;;;;3.67;3.40;;;;;;;13.98;85.60;101533.34;4879602;29;20057;-76
2022/10/05 05:55:12;;;;;;;4.55;4.18;;;;;;;13.97;85.27;101535.28;4894681;29;20061;-78
2022/10/05 05:57:50;;;;;;;4.72;4.30;;;;;;;13.98;85.29;101533.34;4879429;29;20113;-78
2022/10/05 06:00:26;;;;;;;4.25;3.92;;;;;;;13.98;85.54;101526.06;4894906;29;20100;-78
2022/10/05 06:02:57;;;;;;;7.07;4.28;;;;;;;13.98;85.81;101525.31;4863670;29;20092;-79
2022/10/05 06:05:38;;;;;;;4.60;4.25;;;;;;;13.97;85.88;101521.16;4878968;29;20116;-77
2022/10/05 06:08:34;;;;;;;4.97;4.57;;;;;;;13.97;85.84;101526.50;4895990;28;20051;-77
2022/10/05 06:11:22;;;;;;;5.35;4.80;;;;;;;13.97;85.98;101524.56;4953888;28;20051;-77
2022/10/05 06:13:50;;;;;;;5.50;5.10;;;;;;;13.97;86.22;101531.84;4954425;28;20490;-77
2022/10/05 06:16:38;;;;;;;7.65;5.05;;;;;;;13.98;86.20;101528.72;4952722;28;20099;-77
2022/10/05 06:19:13;;;;;;;9.30;4.53;;;;;;;13.99;85.68;101529.47;4951811;28;20134;-77
2022/10/05 06:21:54;;;;;;;5.72;5.13;;;;;;;14.00;85.91;101533.63;4954926;28;20052;-76
2022/10/05 06:24:48;;;;;;;4.70;4.25;;;;;;;13.99;85.73;101524.84;4952870;28;20055;-77
2022/10/05 06:27:39;;;;;;;4.97;4.55;;;;;;;14.01;86.08;101533.16;4951065;28;20139;-77
2022/10/05 06:30:14;;;;;;;6.70;4.80;;;;;;;14.01;86.00;101537.78;4951047;28;20499;-77
2022/10/05 06:33:20;;;;;;;5.22;4.82;;;;;;;14.02;85.91;101539.28;4950884;28;20572;-77
2022/10/05 06:36:10;;;;;;;5.90;5.40;;;;;;;14.01;86.05;101527.81;4952574;28;20075;-76
2022/10/05 06:39:06;;;;;;;8.93;5.28;;;;;;;14.03;86.03;101530.06;4952737;28;20052;-77
2022/10/05 06:41:55;;;;;;;5.20;4.78;;;;;;;14.05;86.06;101538.38;4953327;28;20047;-77
2022/10/05 06:45:13;;;;;;;5.90;5.40;;;;;;;14.08;86.16;101534.06;4954289;28;20492;-75
2022/10/05 06:48:11;;;;;;;6.97;4.95;;;;;;;14.12;86.30;101538.09;4938755;28;20052;-79
2022/10/05 06:50:59;;;;;;;6.32;5.03;;;;;;;14.14;86.29;101541.09;4953176;28;20048;-75
2022/10/05 06:53:41;;;;;;;4.50;4.20;;;;;;;14.15;86.39;101534.53;4954792;28;20048;-84
2022/10/05 06:56:21;;;;;;;6.18;5.47;;;;;;;14.15;85.74;101539.16;4952916;28;20444;-87
2022/10/05 06:58:48;;;;;;;6.38;5.13;;;;;;;14.16;85.87;101537.97;4953234;28;20521;-80
2022/10/05 07:01:44;;;;;;;8.75;4.75;;;;;;;14.17;85.79;101540.19;4952274;28;20068;-87
2022/10/05 07:04:53;;;;;;;8.20;4.30;;;;;;;14.18;85.56;101546.28;4952851;28;20052;-82
2022/10/05 07:07:38;;;;;;;9.15;4.28;;;;;;;14.19;85.83;101542.44;4954153;28;20703;-86
2022/10/05 07:10:26;;;;;;;5.05;4.47;;;;;;;14.20;85.35;101542.00;4952745;28;20052;-79
2022/10/05 07:13:07;;;;;;;5.13;4.75;;;;;;;14.23;85.79;101538.41;4952714;28;20519;-79
2022/10/05 07:15:36;;;;;;;4.55;4.15;;;;;;;14.24;85.41;101533.81;4952493;28;20056;-79
2022/10/05 07:18:18;;;;;;;10.02;4.97;;;;;;;14.27;85.21;101541.69;4953861;28;20587;-78
2022/10/05 07:21:04;;;;;;;4.97;4.28;;;;;;;14.30;85.20;101534.72;4952805;28;20550;-76
2022/10/05 07:23:55;;;;;;;4.65;4.35;;;;;;;14.31;85.46;101534.25;4952480;28;20048;-76
2022/10/05 07:26:31;;;;;;;4.95;4.55;;;;;;;14.33;85.25;101544.53;4952316;28;20517;-77
2022/10/05 07:29:06;;;;;;;4.93;4.53;;;;;;;14.34;85.24;101535.31;4952784;28;20048;-77
2022/10/05 07:31:48;;;;;;;7.13;4.40;;;;;;;14.37;85.61;101536.34;4952120;28;20059;-77
2022/10/05 07:34:51;;;;;;;5.68;4.35;;;;;;;14.39;85.51;101534.72;4952125;28;20054;-77
2022/10/05 07:40:22;;;;;;;4.35;4.05;;;;;;;14.37;85.10;101545.13;4952310;28;20147;-76
2022/10/05 07:43:10;;;;;;;4.70;4.30;;;;;;;14.39;85.33;101544.69;4954211;28;20071;-77
2022/10/05 07:45:52;;;;;;;4.95;4.45;;;;;;;14.39;85.04;101544.69;4952225;28;20048;-76
2022/10/05 07:48:22;;;;;;;4.57;4.22;;;;;;;14.39;84.54;101544.69;4953739;28;20056;-76
2022/10/05 07:51:43;;;;;;;4.80;4.35;;;;;;;14.41;85.06;101553.00;4952389;28;20052;-79
2022/10/05 07:54:20;;;;;;;5.05;4.22;;;;;;;14.40;85.05;101541.53;4868071;29;20057;-76
2022/10/05 07:56:57;;;;;;;4.18;3.75;;;;;;;14.42;85.08;101536.50;4878898;29;20057;-76
2022/10/05 07:59:35;;;;;;;4.05;3.85;;;;;;;14.45;85.00;101532.19;4895087;29;20052;-76
2022/10/05 08:02:45;;;;;;;4.40;4.00;;;;;;;14.47;84.75;101530.56;4866162;29;20056;-77
2022/10/05 08:05:21;;;;;;;7.35;4.28;;;;;;;14.48;84.72;101525.94;4893604;29;20057;-77
2022/10/05 08:07:53;;;;;;;4.47;4.10;;;;;;;14.49;84.11;101533.53;4897879;29;20045;-76
2022/10/05 08:10:40;;;;;;;5.07;4.45;;;;;;;14.52;84.58;101531.91;4897185;29;20598;-76
2022/10/05 08:13:20;;;;;;;4.53;4.15;;;;;;;14.54;84.54;101522.22;4896580;29;20128;-76
2022/10/05 08:15:52;;;;;;;4.32;3.97;;;;;;;14.54;83.90;101522.22;4897234;29;20124;-76
2022/10/05 08:18:43;;;;;;;4.60;4.20;;;;;;;14.54;84.08;101526.84;4897229;29;20064;-75
2022/10/05 08:21:12;;;;;;;4.47;4.07;;;;;;;14.58;84.69;101528.19;4896915;29;20057;-76
2022/10/05 08:23:52;;;;;;;4.43;4.03;;;;;;;14.61;83.73;101527.28;4897132;29;20455;-74
2022/10/05 08:26:44;;;;;;;7.50;4.40;;;;;;;14.62;83.51;101528.03;4897299;29;20059;-78
2022/10/05 08:29:30;;;;;;;4.72;4.40;;;;;;;14.62;83.59;101515.38;4906267;29;20588;-78
2022/10/05 08:32:02;;;;;;;5.97;4.15;;;;;;;14.65;83.58;101519.84;4937409;28;20048;-77
2022/10/05 08:34:36;;;;;;;4.13;3.83;;;;;;;14.70;83.68;101515.09;4941029;28;20468;-76
2022/10/05 08:37:16;;;;;;;4.65;4.28;;;;;;;14.71;83.49;101511.22;4955954;28;20123;-76
2022/10/05 08:39:55;;;;;;;4.68;4.28;;;;;;;14.71;83.39;101503.91;4955168;28;20517;-76
2022/10/05 08:42:34;;;;;;;4.40;4.10;;;;;;;14.72;83.02;101512.69;4936279;28;20458;-76
2022/10/05 08:45:43;;;;;;;4.47;4.07;;;;;;;14.74;82.91;101502.28;4937129;28;20048;-77
2022/10/05 08:48:34;;;;;;;5.47;4.55;;;;;;;14.76;82.47;101506.00;4936833;29;20068;-75
2022/10/05 08:51:22;;;;;;;5.05;4.00;;;;;;;14.77;82.74;101507.47;4936798;28;20119;-75
2022/10/05 08:54:27;;;;;;;7.97;4.03;;;;;;;14.82;82.94;101508.78;4937203;28;20552;-76
2022/10/05 08:57:12;;;;;;;4.57;4.10;;;;;;;14.85;82.40;101500.59;4936504;28;20044;-75
2022/10/05 09:00:00;;;;;;;5.25;3.70;;;;;;;14.89;82.37;101495.81;4937108;28;20087;-75
2022/10/05 09:02:48;;;;;;;4.22;3.92;;;;;;;14.92;81.94;101489.56;4936996;28;20131;-75
2022/10/05 09:05:42;;;;;;;9.13;3.85;;;;;;;14.98;82.24;101498.47;4955505;28;20135;-75
2022/10/05 09:08:47;;;;;;;4.60;4.05;;;;;;;15.04;81.79;101497.88;4955617;28;20127;-75
2022/10/05 09:11:48;;;;;;;3.97;3.67;;;;;;;15.05;81.43;101497.41;4954298;28;20460;-75
2022/10/05 09:14:51;;;;;;;3.88;3.53;;;;;;;15.07;81.12;101497.72;4955420;28;20051;-76
2022/10/05 09:18:19;;;;;;;4.57;3.35;;;;;;;15.12;81.38;101488.31;4955899;28;20050;-75
2022/10/05 09:20:53;;;;;;;3.90;3.17;;;;;;;15.20;80.80;101486.78;4955933;28;20084;-75
2022/10/05 09:23:43;;;;;;;3.40;3.10;;;;;;;15.25;79.67;101486.91;4955300;28;20301;-76
2022/10/05 09:26:29;;;;;;;3.17;2.95;;;;;;;15.32;80.02;101491.22;4954720;28;20064;-80
2022/10/05 09:29:17;;;;;;;2.85;2.72;;;;;;;15.37;79.25;101489.84;4955685;28;20110;-75
2022/10/05 09:32:12;;;;;;;3.00;2.70;;;;;;;15.40;78.60;101486.25;4955874;28;20071;-74
2022/10/05 09:35:03;;;;;;;4.60;2.92;;;;;;;15.47;78.72;101485.94;4955493;28;20106;-76
2022/10/05 09:38:12;;;;;;;4.45;2.92;;;;;;;15.53;78.50;101481.44;4955142;28;20056;-76
2022/10/05 09:41:16;;;;;;;4.32;3.50;;;;;;;15.59;78.32;101477.69;4955240;28;20127;-76
2022/10/05 09:44:11;;;;;;;3.80;3.50;;;;;;;15.69;77.94;101464.94;4955600;28;20091;-76
2022/10/05 09:47:03;;;;;;;3.97;3.78;;;;;;;15.75;77.71;101465.81;4955388;28;20489;-76
2022/10/05 09:50:08;;;;;;;4.20;3.70;;;;;;;15.85;77.79;101466.50;4954288;28;20066;-76
2022/10/05 09:52:55;;;;;;;3.92;3.40;;;;;;;15.92;77.41;101468.84;4895838;29;20049;-76
2022/10/05 09:55:41;;;;;;;3.40;3.10;;;;;;;16.00;77.75;101464.56;4894848;29;20084;-77
2022/10/05 09:58:28;;;;;;;4.85;3.42;;;;;;;16.05;77.82;101455.16;4895091;29;20159;-77
2022/10/05 10:01:27;;;;;;;2.60;2.40;;;;;;;16.15;77.96;101459.25;4895838;29;20053;-77
2022/10/05 10:04:36;;;;;;;2.85;2.65;;;;;;;16.23;77.17;101455.00;4852298;29;20544;-77
2022/10/05 10:07:21;;;;;;;2.80;2.45;;;;;;;16.20;75.96;101447.88;4839080;29;20058;-76
2022/10/05 10:10:06;;;;;;;3.95;2.70;;;;;;;16.25;77.11;101449.91;4839012;29;20534;-77
2022/10/05 10:12:41;;;;;;;2.75;2.45;;;;;;;16.31;76.52;101440.75;4839622;29;20163;-77
2022/10/05 10:15:45;;;;;;;7.82;2.63;;;;;;;16.33;76.67;101438.34;4838188;29;20054;-78
2022/10/05 10:18:35;;;;;;;4.93;3.00;;;;;;;16.36;76.60;101441.31;4838710;29;20062;-77
2022/10/05 10:21:28;;;;;;;3.83;3.45;;;;;;;16.40;76.75;101439.91;4824073;29;20054;-78
2022/10/05 10:24:00;;;;;;;3.13;2.78;;;;;;;16.43;76.78;101435.56;4864726;29;20068;-77
2022/10/05 10:26:42;;;;;;;3.17;2.97;;;;;;;16.46;77.54;101435.38;4876667;29;20543;-79
2022/10/05 10:29:21;;;;;;;;;;;;;;;16.56;78.20;101442.16;4876742;29;20595;-77
2022/10/05 10:32:12;;;;;;;3.75;3.30;;;;;;;16.58;76.38;101437.06;4876828;29;19957;-77
2022/10/05 10:35:17;;;;;;;6.13;3.40;;;;;;;16.55;77.18;101437.97;4860750;29;20146;-77
2022/10/05 10:38:05;;;;;;;3.50;3.20;;;;;;;16.53;77.36;101434.28;4876359;29;20586;-78
2022/10/05 10:40:50;;;;;;;4.18;3.17;;;;;;;16.53;76.72;101421.56;4946128;28;20126;-76
2022/10/05 10:43:26;;;;;;;3.70;3.40;;;;;;;16.50;76.48;101419.81;4954669;28;20510;-77
2022/10/05 10:46:08;;;;;;;3.58;3.30;;;;;;;16.50;76.95;101421.75;4954701;28;20059;-77
2022/10/05 10:49:01;;;;;;;5.85;3.53;;;;;;;16.52;77.10;101432.78;4954700;28;20055;-76
2022/10/05 10:51:58;;;;;;;6.22;3.50;;;;;;;16.51;77.14;101432.03;4954487;28;20587;-74
2022/10/05 10:54:52;;;;;;;3.72;3.42;;;;;;;16.56;77.16;101415.28;4954448;28;20487;-76
2022/10/05 10:57:36;;;;;;;4.75;3.65;;;;;;;16.59;76.72;101416.28;4954696;28;20127;-76
2022/10/05 11:00:18;;;;;;;8.32;5.10;;;;;;;16.60;76.34;101413.13;4954006;28;20052;-77
2022/10/05 11:03:07;;;;;;;6.72;3.75;;;;;;;16.62;76.90;101404.63;4954415;28;20139;-77
2022/10/05 11:05:55;;;;;;;4.43;3.88;;;;;;;16.62;76.96;101412.69;4954487;28;20051;-77
2022/10/05 11:08:36;;;;;;;5.50;3.67;;;;;;;16.61;77.18;101419.25;4968193;28;20139;-77
2022/10/05 11:11:37;;;;;;;4.13;3.80;;;;;;;16.60;77.47;101407.75;4954447;28;20127;-76
2022/10/05 11:14:20;;;;;;;5.85;3.88;;;;;;;16.61;77.91;101411.94;4953884;28;20076;-76
2022/10/05 11:17:22;;;;;;;4.40;3.65;;;;;;;16.69;77.34;101401.59;4954338;28;20071;-76
2022/10/05 11:19:53;;;;;;;4.55;4.15;;;;;;;16.70;76.96;101408.44;4954351;28;20044;-76
2022/10/05 11:22:55;;;;;;;3.40;3.10;;;;;;;16.74;77.08;101413.63;4953671;28;20493;-75
2022/10/05 11:25:33;;;;;;;3.63;3.28;;;;;;;16.78;76.91;101401.47;4954071;28;20126;-75
2022/10/05 11:28:18;;;;;;;9.55;3.75;;;;;;;16.83;76.61;101406.19;4954048;28;20047;-75
2022/10/05 11:31:00;;;;;;;4.55;3.35;;;;;;;16.90;76.88;101405.06;4954200;28;20047;-75
2022/10/05 11:33:50;;;;;;;;;;;;;;;16.91;77.36;101391.16;4954556;28;20052;-75
2022/10/05 11:36:45;;;;;;;4.85;3.15;;;;;;;16.91;76.93;101391.16;4957011;28;19927;-75
2022/10/05 11:39:29;;;;;;;4.93;3.38;;;;;;;16.98;76.41;101387.31;4956705;28;20058;-75
2022/10/05 11:42:47;;;;;;;8.35;3.17;;;;;;;17.02;75.79;101385.19;4957372;28;20164;-77
2022/10/05 11:45:35;;;;;;;4.13;3.38;;;;;;;17.02;75.68;101387.13;4957163;28;20130;-77
2022/10/05 11:48:06;;;;;;;4.45;2.92;;;;;;;17.02;75.21;101379.81;4956829;28;20520;-77
2022/10/05 11:51:00;;;;;;;3.90;3.40;;;;;;;17.08;75.90;101386.00;4957218;28;20044;-77
2022/10/05 11:53:36;;;;;;;4.78;3.10;;;;;;;17.07;75.33;101394.53;4957101;28;20043;-77
2022/10/05 11:56:15;;;;;;;5.55;3.28;;;;;;;17.08;74.73;101383.31;4957021;28;20331;-77
2022/10/05 11:58:52;;;;;;;3.65;3.35;;;;;;;17.15;75.03;101382.19;4957346;28;20139;-77
2022/10/05 12:01:46;;;;;;;3.10;2.90;;;;;;;17.25;75.16;101378.13;4956863;28;20928;-77
2022/10/05 12:04:21;;;;;;;5.47;3.60;;;;;;;17.33;73.85;101371.16;4956795;28;20040;-78
2022/10/05 12:07:14;;;;;;;5.43;3.60;;;;;;;17.36;73.95;101367.53;4956753;28;20525;-78
2022/10/05 12:10:16;;;;;;;3.83;3.08;;;;;;;17.44;73.36;101370.56;4957050;28;20475;-77
2022/10/05 12:13:23;;;;;;;3.63;3.22;;;;;;;17.49;73.58;101365.25;4956982;28;20052;-78
2022/10/05 12:15:55;;;;;;;3.72;3.00;;;;;;;17.51;72.06;101359.38;4948939;28;20064;-79
2022/10/05 12:18:32;;;;;;;2.75;2.55;;;;;;;17.48;72.89;101365.72;4956741;28;20103;-79
2022/10/05 12:21:26;;;;;;;3.42;3.13;;;;;;;17.42;72.64;101362.94;4956281;28;20135;-77
2022/10/05 12:24:02;;;;;;;8.18;3.20;;;;;;;17.46;72.38;101360.78;4955590;28;20072;-77
2022/10/05 12:26:51;;;;;;;8.07;2.92;;;;;;;17.55;72.33;101362.63;4956982;28;20052;-76
2022/10/05 12:29:42;;;;;;;3.45;2.60;;;;;;;17.66;71.65;101355.41;4956268;28;20051;-78
2022/10/05 12:32:15;;;;;;;3.80;2.83;;;;;;;17.74;71.57;101349.63;4956281;28;20062;-78
2022/10/05 12:34:48;;;;;;;4.53;2.60;;;;;;;17.79;71.21;101352.38;4955765;28;20150;-78
2022/10/05 12:37:29;;;;;;;2.90;2.67;;;;;;;17.84;71.31;101343.59;4956067;28;20048;-78
2022/10/05 12:40:07;;;;;;;4.90;3.33;;;;;;;17.89;69.94;101342.91;4955140;28;20043;-79
2022/10/05 12:42:50;;;;;;;2.60;2.40;;;;;;;17.99;70.33;101340.81;4956570;28;20134;-79
2022/10/05 12:45:19;;;;;;;6.78;2.50;;;;;;;18.02;70.17;101347.91;4955796;28;20135;-78
2022/10/05 12:48:05;;;;;;;3.30;2.75;;;;;;;18.06;70.13;101339.63;4956071;28;20039;-78
2022/10/05 12:50:41;;;;;;;3.58;2.92;;;;;;;18.16;70.15;101339.00;4955800;28;20130;-78